createdAt,value
2022-12-27T00:00:35.813Z,85.39
2022-12-27T00:03:02.403Z,83.94
2022-12-27T00:05:29.726Z,86.12
2022-12-27T00:07:56.331Z,85.58
2022-12-27T00:10:22.943Z,85.70
2022-12-27T00:12:49.587Z,85.40
2022-12-27T00:15:16.104Z,84.55
2022-12-27T00:17:42.651Z,84.38
2022-12-27T00:20:11.714Z,84.44
2022-12-27T00:22:39.009Z,83.18
2022-12-27T00:25:05.657Z,82.44
2022-12-27T00:27:32.213Z,82.84
2022-12-27T00:29:58.780Z,82.71
2022-12-27T00:32:25.633Z,81.59
2022-12-27T00:34:52.121Z,81.78
2022-12-27T00:37:18.646Z,82.26
2022-12-27T00:39:45.217Z,81.42
2022-12-27T00:42:11.772Z,80.43
2022-12-27T00:44:39.327Z,78.91
2022-12-27T00:47:05.812Z,78.52
2022-12-27T00:49:32.376Z,77.85
2022-12-27T00:51:58.954Z,77.86
2022-12-27T00:54:25.491Z,77.23
2022-12-27T00:56:52.025Z,78.38
2022-12-27T00:59:18.628Z,76.77
2022-12-27T01:01:45.295Z,76.41
2022-12-27T01:04:15.706Z,77.05
2022-12-27T01:06:42.331Z,77.32
2022-12-27T01:09:08.843Z,78.25
2022-12-27T01:11:35.340Z,78.23
2022-12-27T01:14:03.675Z,76.73
2022-12-27T01:16:30.993Z,76.89
2022-12-27T01:18:58.289Z,76.18
2022-12-27T01:21:25.247Z,76.28
2022-12-27T01:23:51.933Z,77.62
2022-12-27T01:26:20.221Z,77.88
2022-12-27T01:28:47.049Z,76.58
2022-12-27T01:31:14.897Z,76.43
2022-12-27T01:33:41.544Z,76.83
2022-12-27T01:36:18.501Z,77.42
2022-12-27T01:38:45.239Z,77.67
2022-12-27T01:41:38.134Z,77.24
2022-12-27T01:44:23.376Z,77.39
2022-12-27T01:46:49.841Z,77.76
2022-12-27T01:49:16.400Z,77.76
2022-12-27T01:51:43.012Z,77.98
2022-12-27T01:54:09.523Z,78.13
2022-12-27T01:56:36.046Z,78.99
2022-12-27T01:59:03.309Z,78.52
2022-12-27T02:01:31.209Z,78.31
2022-12-27T02:04:02.614Z,78.38
2022-12-27T02:06:29.526Z,78.84
2022-12-27T02:09:05.108Z,78.59
2022-12-27T02:11:51.240Z,78.58
2022-12-27T02:14:28.418Z,79.25
2022-12-27T02:16:55.813Z,79.78
2022-12-27T02:19:22.490Z,80.67
2022-12-27T02:22:01.105Z,80.89
2022-12-27T02:24:30.691Z,80.07
2022-12-27T02:27:07.130Z,80.62
2022-12-27T02:29:52.290Z,80.28
2022-12-27T02:32:21.839Z,80.54
2022-12-27T02:34:54.115Z,80.79
2022-12-27T02:37:20.965Z,80.09
2022-12-27T02:39:47.665Z,80.08
2022-12-27T02:42:33.529Z,79.61
2022-12-27T02:45:18.907Z,79.26
2022-12-27T02:48:04.065Z,80.02
2022-12-27T02:50:53.274Z,79.95
2022-12-27T02:53:27.251Z,80.41
2022-12-27T02:56:15.480Z,80.38
2022-12-27T02:58:47.956Z,80.52
2022-12-27T03:01:36.391Z,79.47
2022-12-27T03:04:18.455Z,80.60
2022-12-27T03:06:50.795Z,80.90
2022-12-27T03:09:58.275Z,81.42
2022-12-27T03:12:43.454Z,81.54
2022-12-27T03:15:38.356Z,81.80
2022-12-27T03:18:09.862Z,81.07
2022-12-27T03:20:54.907Z,81.75
2022-12-27T03:23:39.915Z,81.67
2022-12-27T03:26:06.420Z,81.70
2022-12-27T03:28:51.545Z,81.87
2022-12-27T03:31:41.135Z,81.74
2022-12-27T03:34:27.293Z,82.14
2022-12-27T03:37:12.299Z,82.84
2022-12-27T03:39:40.401Z,82.73
2022-12-27T03:42:28.180Z,82.75
2022-12-27T03:44:54.768Z,82.25
2022-12-27T03:47:42.772Z,81.05
2022-12-27T03:50:21.348Z,79.84
2022-12-27T03:52:49.279Z,79.97
2022-12-27T03:55:16.781Z,79.40
2022-12-27T03:57:43.268Z,79.79
2022-12-27T04:00:10.330Z,79.77
2022-12-27T04:02:39.979Z,79.92
2022-12-27T04:05:06.898Z,80.03
2022-12-27T04:07:33.411Z,80.77
2022-12-27T04:10:18.641Z,80.87
2022-12-27T04:13:03.575Z,81.82
2022-12-27T04:15:49.401Z,82.39
2022-12-27T04:18:34.416Z,82.26
2022-12-27T04:21:19.685Z,82.58
2022-12-27T04:24:04.787Z,82.33
2022-12-27T04:26:50.062Z,82.28
2022-12-27T04:29:35.117Z,82.65
2022-12-27T04:32:20.751Z,83.33
2022-12-27T04:34:47.226Z,83.84
2022-12-27T04:37:15.496Z,83.32
2022-12-27T04:39:42.342Z,83.55
2022-12-27T04:42:28.429Z,83.87
2022-12-27T04:45:15.581Z,83.77
2022-12-27T04:48:00.972Z,83.88
2022-12-27T04:50:49.086Z,84.12
2022-12-27T04:53:37.941Z,84.03
2022-12-27T04:56:04.619Z,84.15
2022-12-27T04:58:31.198Z,84.72
2022-12-27T05:01:16.615Z,84.44
2022-12-27T05:03:43.286Z,84.61
2022-12-27T05:06:09.821Z,84.45
2022-12-27T05:08:55.127Z,84.01
2022-12-27T05:11:40.157Z,83.69
2022-12-27T05:14:08.828Z,83.68
2022-12-27T05:16:36.255Z,83.51
2022-12-27T05:19:02.915Z,83.29
2022-12-27T05:21:29.494Z,83.09
2022-12-27T05:24:14.832Z,82.78
2022-12-27T05:26:41.897Z,83.00
2022-12-27T05:29:08.443Z,82.89
2022-12-27T05:31:35.029Z,82.58
2022-12-27T05:34:01.567Z,82.39
2022-12-27T05:36:28.290Z,82.10
2022-12-27T05:38:54.826Z,82.19
2022-12-27T05:41:21.452Z,81.73
2022-12-27T05:43:48.039Z,82.05
2022-12-27T05:46:15.686Z,81.90
2022-12-27T05:48:42.275Z,82.05
2022-12-27T05:51:12.797Z,82.65
2022-12-27T05:53:39.942Z,82.59
2022-12-27T05:56:06.820Z,82.34
2022-12-27T05:58:33.317Z,82.33
2022-12-27T06:01:00.336Z,82.94
2022-12-27T06:03:27.114Z,82.84
2022-12-27T06:05:59.395Z,82.33
2022-12-27T06:08:25.895Z,82.39
2022-12-27T06:11:00.603Z,82.66
2022-12-27T06:13:27.130Z,82.59
2022-12-27T06:15:53.692Z,82.50
2022-12-27T06:18:20.237Z,82.36
2022-12-27T06:20:46.777Z,82.59
2022-12-27T06:23:13.285Z,82.83
2022-12-27T06:25:39.847Z,82.70
2022-12-27T06:28:06.342Z,82.80
2022-12-27T06:30:36.140Z,82.87
2022-12-27T06:33:03.053Z,83.39
2022-12-27T06:35:29.563Z,83.05
2022-12-27T06:37:56.223Z,82.71
2022-12-27T06:40:22.742Z,83.33
2022-12-27T06:42:49.224Z,83.21
2022-12-27T06:45:15.719Z,83.29
2022-12-27T06:47:42.208Z,82.80
2022-12-27T06:50:08.954Z,82.97
2022-12-27T06:52:35.612Z,83.14
2022-12-27T06:55:02.159Z,83.12
2022-12-27T06:57:28.775Z,83.31
2022-12-27T06:59:55.285Z,83.15
2022-12-27T07:02:21.950Z,83.38
2022-12-27T07:04:48.520Z,83.22
2022-12-27T07:07:16.000Z,83.43
2022-12-27T07:09:42.721Z,83.72
2022-12-27T07:12:09.279Z,83.14
2022-12-27T07:14:35.854Z,83.46
2022-12-27T07:17:02.377Z,83.67
2022-12-27T07:19:28.900Z,83.32
2022-12-27T07:21:55.380Z,83.17
2022-12-27T07:24:21.871Z,83.47
2022-12-27T07:26:48.468Z,83.42
2022-12-27T07:29:14.992Z,83.21
2022-12-27T07:31:41.580Z,83.33
2022-12-27T07:34:09.470Z,83.72
2022-12-27T07:36:37.379Z,83.04
2022-12-27T07:39:04.252Z,83.64
2022-12-27T07:41:30.918Z,83.65
2022-12-27T07:44:00.382Z,83.71
2022-12-27T07:46:27.282Z,83.64
2022-12-27T07:48:55.282Z,83.49
2022-12-27T07:51:22.057Z,84.06
2022-12-27T07:53:49.498Z,84.30
2022-12-27T07:56:25.486Z,84.31
2022-12-27T07:58:53.411Z,84.67
2022-12-27T08:01:20.605Z,85.19
2022-12-27T08:03:47.617Z,84.48
2022-12-27T08:06:20.140Z,84.39
2022-12-27T08:08:46.718Z,84.46
2022-12-27T08:11:13.451Z,84.59
2022-12-27T08:13:39.974Z,84.49
2022-12-27T08:16:06.673Z,84.27
2022-12-27T08:18:33.318Z,84.16
2022-12-27T08:20:59.882Z,83.79
2022-12-27T08:23:26.415Z,83.73
2022-12-27T08:25:53.046Z,83.11
2022-12-27T08:28:20.452Z,82.45
2022-12-27T08:30:48.639Z,82.05
2022-12-27T08:33:15.386Z,81.62
2022-12-27T08:35:52.837Z,81.61
2022-12-27T08:38:20.274Z,81.18
2022-12-27T08:40:46.803Z,81.06
2022-12-27T08:43:13.566Z,81.04
2022-12-27T08:45:40.297Z,80.76
2022-12-27T08:48:07.573Z,80.60
2022-12-27T08:50:34.205Z,80.64
2022-12-27T08:53:01.688Z,80.59
2022-12-27T08:55:28.615Z,80.44
2022-12-27T08:58:02.268Z,80.35
2022-12-27T09:00:28.843Z,80.29
2022-12-27T09:02:55.451Z,79.97
2022-12-27T09:05:22.501Z,80.23
2022-12-27T09:07:49.127Z,80.62
2022-12-27T09:10:15.938Z,79.13
2022-12-27T09:12:42.522Z,79.75
2022-12-27T09:15:10.018Z,79.52
2022-12-27T09:17:36.617Z,79.59
2022-12-27T09:20:03.526Z,79.34
2022-12-27T09:22:30.019Z,79.36
2022-12-27T09:24:56.628Z,79.27
2022-12-27T09:27:23.167Z,78.37
2022-12-27T09:29:50.485Z,78.99
2022-12-27T09:32:17.052Z,79.02
2022-12-27T09:34:43.560Z,78.67
2022-12-27T09:37:10.122Z,78.98
2022-12-27T09:39:36.685Z,79.27
2022-12-27T09:44:58.130Z,78.91
2022-12-27T09:47:54.209Z,79.11
2022-12-27T09:50:23.531Z,78.63
2022-12-27T09:53:06.474Z,78.74
2022-12-27T09:55:41.976Z,78.96
2022-12-27T09:58:18.789Z,79.21
2022-12-27T10:00:46.519Z,79.04
2022-12-27T10:03:13.206Z,78.98
2022-12-27T10:05:39.825Z,79.11
2022-12-27T10:08:25.297Z,79.52
2022-12-27T10:10:54.605Z,78.90
2022-12-27T10:13:27.946Z,78.39
2022-12-27T10:16:00.925Z,78.64
2022-12-27T10:18:46.255Z,78.73
2022-12-27T10:21:15.831Z,79.24
2022-12-27T10:23:44.001Z,78.85
2022-12-27T10:26:14.273Z,78.74
2022-12-27T10:28:44.712Z,79.00
2022-12-27T10:31:15.067Z,78.88
2022-12-27T10:33:41.707Z,78.89
2022-12-27T10:36:28.728Z,78.80
2022-12-27T10:38:55.991Z,79.31
2022-12-27T10:41:39.744Z,78.96
2022-12-27T10:44:10.307Z,78.32
2022-12-27T10:46:36.944Z,79.05
2022-12-27T10:49:22.350Z,78.60
2022-12-27T10:51:49.547Z,78.52
2022-12-27T10:54:21.427Z,77.88
2022-12-27T10:56:48.127Z,78.57
2022-12-27T10:59:16.890Z,78.05
2022-12-27T11:01:45.724Z,78.68
2022-12-27T11:04:20.753Z,78.54
2022-12-27T11:06:59.993Z,78.16
2022-12-27T11:09:32.595Z,78.62
2022-12-27T11:12:12.127Z,78.50
2022-12-27T11:14:38.744Z,78.29
2022-12-27T11:17:13.129Z,78.86
2022-12-27T11:19:41.195Z,77.14
2022-12-27T11:22:07.850Z,78.19
2022-12-27T11:24:34.344Z,78.40
2022-12-27T11:27:01.343Z,78.69
2022-12-27T11:29:28.336Z,78.71
2022-12-27T11:31:55.078Z,78.15
2022-12-27T11:34:27.032Z,78.50
2022-12-27T11:36:54.860Z,78.59
2022-12-27T11:39:40.326Z,78.79
2022-12-27T11:42:24.482Z,78.33
2022-12-27T11:44:55.662Z,78.67
2022-12-27T11:47:28.620Z,77.67
2022-12-27T11:49:56.311Z,78.58
2022-12-27T11:52:33.699Z,78.88
2022-12-27T11:55:19.145Z,78.60
2022-12-27T11:58:04.535Z,78.75
2022-12-27T12:00:40.975Z,78.62
2022-12-27T12:03:37.050Z,78.71
2022-12-27T12:06:06.357Z,78.85
2022-12-27T12:08:39.509Z,77.77
2022-12-27T12:11:24.542Z,78.34
2022-12-27T12:14:00.431Z,78.65
2022-12-27T12:16:40.648Z,77.87
2022-12-27T12:19:19.666Z,78.21
2022-12-27T12:21:49.076Z,78.61
2022-12-27T12:24:15.613Z,77.84
2022-12-27T12:27:01.085Z,78.13
2022-12-27T12:29:36.631Z,78.28
2022-12-27T12:32:22.053Z,78.24
2022-12-27T12:34:55.600Z,77.96
2022-12-27T12:37:57.393Z,78.44
2022-12-27T12:40:23.907Z,77.71
2022-12-27T12:42:50.451Z,77.53
2022-12-27T12:45:17.125Z,78.39
2022-12-27T12:48:16.131Z,78.18
2022-12-27T12:50:52.568Z,78.79
2022-12-27T12:53:22.601Z,78.87
2022-12-27T12:55:49.054Z,82.70
2022-12-27T12:58:15.519Z,80.02
2022-12-27T13:00:56.223Z,79.21
2022-12-27T13:03:30.980Z,79.40
2022-12-27T13:06:15.668Z,79.35
2022-12-27T13:08:47.942Z,79.00
2022-12-27T13:11:24.951Z,79.23
2022-12-27T13:13:54.261Z,79.48
2022-12-27T13:16:21.753Z,79.20
2022-12-27T13:18:48.383Z,79.56
2022-12-27T13:21:23.647Z,79.43
2022-12-27T13:24:07.398Z,79.32
2022-12-27T13:26:53.874Z,79.00
2022-12-27T13:29:38.798Z,79.10
2022-12-27T13:32:08.058Z,79.09
2022-12-27T13:34:43.622Z,78.60
2022-12-27T13:37:20.139Z,78.84
2022-12-27T13:39:49.383Z,78.86
2022-12-27T13:42:28.098Z,78.94
2022-12-27T13:44:54.653Z,78.77
2022-12-27T13:47:41.464Z,78.60
2022-12-27T13:50:10.995Z,78.65
2022-12-27T13:52:59.480Z,78.77
2022-12-27T13:55:45.483Z,78.52
2022-12-27T13:58:21.217Z,78.94
2022-12-27T14:00:52.480Z,79.04
2022-12-27T14:03:23.446Z,78.82
2022-12-27T14:06:08.714Z,78.90
2022-12-27T14:08:54.190Z,79.30
2022-12-27T14:11:39.431Z,80.39
2022-12-27T14:14:05.915Z,81.04
2022-12-27T14:16:37.707Z,81.38
2022-12-27T14:19:04.283Z,81.57
2022-12-27T14:21:52.740Z,81.97
2022-12-27T14:24:22.277Z,84.41
2022-12-27T14:27:00.802Z,82.20
2022-12-27T14:29:28.613Z,82.59
2022-12-27T14:31:55.102Z,81.81
2022-12-27T14:34:27.606Z,83.39
2022-12-27T14:37:26.329Z,83.81
2022-12-27T14:40:08.306Z,82.65
2022-12-27T14:42:34.792Z,82.96
2022-12-27T14:45:20.212Z,83.54
2022-12-27T14:48:05.317Z,83.99
2022-12-27T14:50:31.850Z,84.20
2022-12-27T14:53:04.522Z,85.31
2022-12-27T14:55:33.219Z,85.35
2022-12-27T14:58:08.814Z,85.29
2022-12-27T15:00:52.303Z,85.80
2022-12-27T15:03:18.861Z,85.58
2022-12-27T15:06:04.136Z,85.87
2022-12-27T15:08:30.710Z,85.60
2022-12-27T15:11:12.563Z,85.97
2022-12-27T15:13:38.982Z,85.70
2022-12-27T15:16:15.521Z,85.86
2022-12-27T15:19:01.286Z,85.68
2022-12-27T15:21:41.609Z,85.79
2022-12-27T15:24:11.489Z,85.80
2022-12-27T15:26:56.905Z,86.51
2022-12-27T15:29:32.463Z,86.40
2022-12-27T15:32:11.963Z,86.92
2022-12-27T15:34:44.786Z,86.42
2022-12-27T15:37:31.231Z,86.99
2022-12-27T15:39:57.799Z,86.90
2022-12-27T15:42:31.667Z,86.84
2022-12-27T15:45:05.802Z,86.52
2022-12-27T15:47:47.293Z,86.79
2022-12-27T15:50:16.417Z,86.15
2022-12-27T15:52:46.104Z,86.33
2022-12-27T15:55:24.565Z,86.10
2022-12-27T15:58:09.592Z,86.57
2022-12-27T16:00:36.321Z,86.82
2022-12-27T16:03:04.027Z,86.62
2022-12-27T16:05:44.531Z,86.48
2022-12-27T16:08:10.977Z,86.62
2022-12-27T16:10:40.279Z,86.90
2022-12-27T16:13:09.781Z,87.01
2022-12-27T16:15:40.942Z,87.02
2022-12-27T16:18:16.535Z,86.88
2022-12-27T16:20:59.523Z,86.78
2022-12-27T16:23:36.444Z,86.92
2022-12-27T16:26:04.105Z,86.70
2022-12-27T16:28:30.887Z,86.98
2022-12-27T16:30:57.976Z,86.81
2022-12-27T16:33:27.691Z,86.71
2022-12-27T16:36:06.371Z,86.62
2022-12-27T16:38:33.767Z,86.46
2022-12-27T16:41:11.578Z,86.21
2022-12-27T16:43:42.474Z,86.37
2022-12-27T16:46:12.429Z,86.29
2022-12-27T16:48:45.390Z,86.71
2022-12-27T16:51:24.394Z,86.69
2022-12-27T16:54:02.955Z,86.81
2022-12-27T16:56:30.352Z,86.73
2022-12-27T16:58:57.074Z,86.96
2022-12-27T17:01:26.733Z,86.54
2022-12-27T17:03:54.134Z,86.98
2022-12-27T17:06:32.003Z,86.43
2022-12-27T17:09:09.116Z,86.07
2022-12-27T17:11:43.101Z,86.52
2022-12-27T17:14:16.862Z,87.26
2022-12-27T17:16:46.295Z,86.48
2022-12-27T17:19:17.588Z,87.15
2022-12-27T17:21:44.311Z,86.87
2022-12-27T17:24:17.742Z,86.16
2022-12-27T17:26:53.342Z,86.30
2022-12-27T17:29:52.488Z,86.24
2022-12-27T17:32:34.325Z,86.17
2022-12-27T17:35:03.875Z,86.33
2022-12-27T17:37:34.251Z,86.25
2022-12-27T17:40:07.091Z,86.57
2022-12-27T17:42:54.359Z,86.55
2022-12-27T17:45:35.941Z,86.32
2022-12-27T17:48:09.866Z,85.99
2022-12-27T17:50:36.543Z,86.24
2022-12-27T17:53:27.656Z,86.50
2022-12-27T17:56:39.389Z,85.79
2022-12-27T17:59:10.555Z,86.17
2022-12-27T18:01:47.464Z,85.69
2022-12-27T18:04:24.856Z,85.72
2022-12-27T18:06:55.025Z,85.93
2022-12-27T18:09:42.016Z,86.10
2022-12-27T18:12:10.192Z,86.11
2022-12-27T18:14:36.759Z,86.79
2022-12-27T18:17:03.467Z,86.24
2022-12-27T18:19:31.324Z,86.20
2022-12-27T18:22:01.946Z,86.46
2022-12-27T18:24:30.305Z,85.93
2022-12-27T18:27:00.614Z,86.03
2022-12-27T18:29:27.287Z,85.71
2022-12-27T18:31:53.940Z,85.94
2022-12-27T18:34:24.871Z,85.75
2022-12-27T18:36:52.486Z,85.95
2022-12-27T18:39:22.105Z,85.87
2022-12-27T18:41:48.992Z,85.65
2022-12-27T18:44:23.054Z,86.08
2022-12-27T18:46:57.091Z,86.15
2022-12-27T18:49:25.187Z,86.36
2022-12-27T18:51:52.138Z,85.60
2022-12-27T18:54:27.742Z,85.81
2022-12-27T18:56:54.796Z,85.46
2022-12-27T18:59:39.439Z,85.24
2022-12-27T19:02:25.049Z,85.32
2022-12-27T19:05:10.179Z,85.47
2022-12-27T19:07:36.769Z,85.94
2022-12-27T19:10:03.360Z,84.98
2022-12-27T19:12:31.338Z,84.28
2022-12-27T19:14:58.066Z,84.88
2022-12-27T19:17:25.392Z,84.71
2022-12-27T19:19:55.199Z,84.96
2022-12-27T19:22:30.919Z,85.52
2022-12-27T19:25:01.659Z,84.96
2022-12-27T19:27:28.239Z,85.45
2022-12-27T19:29:54.938Z,85.18
2022-12-27T19:32:29.966Z,85.05
2022-12-27T19:34:56.807Z,84.84
2022-12-27T19:37:26.867Z,84.51
2022-12-27T19:39:53.443Z,84.79
2022-12-27T19:42:30.133Z,84.71
2022-12-27T19:44:56.736Z,85.01
2022-12-27T19:47:23.335Z,84.63
2022-12-27T19:49:49.873Z,85.17
2022-12-27T19:52:17.900Z,84.00
2022-12-27T19:54:44.588Z,84.00
2022-12-27T19:57:12.436Z,84.03
2022-12-27T19:59:38.973Z,84.37
2022-12-27T20:02:05.804Z,83.64
2022-12-27T20:04:32.863Z,84.13
2022-12-27T20:06:59.770Z,83.94
2022-12-27T20:09:26.337Z,83.81
2022-12-27T20:11:53.219Z,84.16
2022-12-27T20:14:19.798Z,83.89
2022-12-27T20:16:46.988Z,83.80
2022-12-27T20:19:16.129Z,84.49
2022-12-27T20:21:42.627Z,84.76
2022-12-27T20:24:12.400Z,84.64
2022-12-27T20:26:39.076Z,83.88
2022-12-27T20:29:05.628Z,84.40
2022-12-27T20:31:32.326Z,84.50
2022-12-27T20:33:58.802Z,84.54
2022-12-27T20:36:25.330Z,83.99
2022-12-27T20:38:51.872Z,83.74
2022-12-27T20:41:19.332Z,83.57
2022-12-27T20:43:45.867Z,83.81
2022-12-27T20:46:14.401Z,84.01
2022-12-27T20:48:41.879Z,84.20
2022-12-27T20:51:09.458Z,84.84
2022-12-27T20:53:36.021Z,84.07
2022-12-27T20:56:03.219Z,83.63
2022-12-27T20:58:30.420Z,83.35
2022-12-27T21:00:57.060Z,83.65
2022-12-27T21:03:23.649Z,84.05
2022-12-27T21:05:50.283Z,84.56
2022-12-27T21:08:16.831Z,84.75
2022-12-27T21:10:43.392Z,84.28
2022-12-27T21:13:10.001Z,84.39
2022-12-27T21:15:42.285Z,84.47
2022-12-27T21:18:09.169Z,84.45
2022-12-27T21:20:35.763Z,84.34
2022-12-27T21:23:02.322Z,84.02
2022-12-27T21:25:28.906Z,84.06
2022-12-27T21:27:55.406Z,85.38
2022-12-27T21:30:22.004Z,85.29
2022-12-27T21:32:48.622Z,85.24
2022-12-27T21:35:16.123Z,85.90
2022-12-27T21:37:42.786Z,86.32
2022-12-27T21:40:09.651Z,85.26
2022-12-27T21:42:36.130Z,85.60
2022-12-27T21:45:02.731Z,86.48
2022-12-27T21:47:31.511Z,86.54
2022-12-27T21:49:58.477Z,86.48
2022-12-27T21:52:25.043Z,86.36
2022-12-27T21:54:51.583Z,86.56
2022-12-27T21:57:18.127Z,86.21
2022-12-27T21:59:44.643Z,86.58
2022-12-27T22:02:13.310Z,86.98
2022-12-27T22:04:39.947Z,87.01
2022-12-27T22:07:06.526Z,86.52
2022-12-27T22:09:33.078Z,86.58
2022-12-27T22:11:59.693Z,86.41
2022-12-27T22:14:28.399Z,85.74
2022-12-27T22:16:56.196Z,85.36
2022-12-27T22:19:22.774Z,84.91
2022-12-27T22:21:49.384Z,84.91
2022-12-27T22:24:19.715Z,84.94
2022-12-27T22:26:48.586Z,84.59
2022-12-27T22:29:15.347Z,84.69
2022-12-27T22:31:42.845Z,84.93
2022-12-27T22:34:09.536Z,85.16
2022-12-27T22:36:36.539Z,85.03
2022-12-27T22:39:03.106Z,85.27
2022-12-27T22:41:30.942Z,85.82
2022-12-27T22:43:58.460Z,85.92
2022-12-27T22:46:25.345Z,85.58
2022-12-27T22:48:52.833Z,86.10
2022-12-27T22:51:20.799Z,86.05
2022-12-27T22:53:47.680Z,86.19
2022-12-27T22:56:15.138Z,85.66
2022-12-27T22:58:41.853Z,85.70
2022-12-27T23:01:15.712Z,86.03
2022-12-27T23:03:42.483Z,86.55
2022-12-27T23:06:10.793Z,85.65
2022-12-27T23:08:37.295Z,85.82
2022-12-27T23:11:07.811Z,87.91
2022-12-27T23:13:34.672Z,88.16
2022-12-27T23:16:01.999Z,87.83
2022-12-27T23:18:28.735Z,87.67
2022-12-27T23:21:21.251Z,88.23
2022-12-27T23:23:42.192Z,87.54
2022-12-27T23:26:18.966Z,87.95
2022-12-27T23:28:46.051Z,88.43
2022-12-27T23:31:12.953Z,87.96
2022-12-27T23:33:40.241Z,88.34
2022-12-27T23:36:07.203Z,89.13
2022-12-27T23:38:33.786Z,88.59
2022-12-27T23:41:01.131Z,89.26
2022-12-27T23:43:51.573Z,89.00
2022-12-27T23:46:18.921Z,88.18
2022-12-27T23:48:45.723Z,88.79
2022-12-27T23:51:13.058Z,88.28
2022-12-27T23:53:39.671Z,87.58
2022-12-27T23:56:07.692Z,87.28
2022-12-27T23:58:34.461Z,86.18
